createdAt,value
2023-08-14T00:04:03.799Z,19.61
2023-08-14T00:09:05.466Z,19.57
2023-08-14T00:14:07.037Z,19.62
2023-08-14T00:19:08.704Z,19.69
2023-08-14T00:24:10.341Z,19.73
2023-08-14T00:29:11.888Z,19.73
2023-08-14T00:34:13.473Z,19.79
2023-08-14T00:39:15.029Z,19.84
2023-08-14T00:44:16.645Z,19.89
2023-08-14T00:49:18.443Z,19.88
2023-08-14T00:54:20.069Z,19.86
2023-08-14T00:59:21.824Z,19.86
2023-08-14T01:04:23.567Z,19.79
2023-08-14T01:09:25.542Z,19.69
2023-08-14T01:14:32.561Z,19.53
2023-08-14T01:19:38.056Z,19.44
2023-08-14T01:25:17.288Z,19.39
2023-08-14T01:30:19.082Z,19.34
2023-08-14T01:35:23.298Z,19.29
2023-08-14T01:40:31.709Z,19.26
2023-08-14T01:45:36.834Z,19.20
2023-08-14T01:50:40.315Z,19.14
2023-08-14T01:55:47.808Z,19.05
2023-08-14T02:00:49.548Z,18.93
2023-08-14T02:05:51.185Z,18.86
2023-08-14T02:10:52.781Z,18.78
2023-08-14T02:15:54.446Z,18.73
2023-08-14T02:20:56.576Z,18.69
2023-08-14T02:25:58.178Z,18.65
2023-08-14T02:31:02.900Z,18.65
2023-08-14T02:36:04.612Z,18.69
2023-08-14T02:41:07.713Z,18.63
2023-08-14T02:46:09.447Z,18.56
2023-08-14T02:51:11.117Z,18.48
2023-08-14T02:56:12.716Z,18.35
2023-08-14T03:01:14.343Z,18.26
2023-08-14T03:06:18.621Z,18.17
2023-08-14T03:11:20.378Z,18.10
2023-08-14T03:16:22.109Z,18.08
2023-08-14T03:21:23.747Z,18.09
2023-08-14T03:26:25.720Z,18.09
2023-08-14T03:31:27.366Z,18.06
2023-08-14T03:36:31.008Z,18.03
2023-08-14T03:41:34.049Z,17.99
2023-08-14T03:46:37.250Z,17.89
2023-08-14T03:51:38.859Z,17.84
2023-08-14T03:56:41.322Z,17.75
2023-08-14T04:01:44.376Z,17.67
2023-08-14T04:06:48.566Z,17.66
2023-08-14T04:11:50.263Z,17.58
2023-08-14T04:16:53.073Z,17.59
2023-08-14T04:21:54.696Z,17.58
2023-08-14T04:26:56.473Z,17.63
2023-08-14T04:31:59.503Z,17.67
2023-08-14T04:37:01.195Z,17.68
2023-08-14T04:42:04.078Z,17.64
2023-08-14T04:47:05.991Z,17.74
2023-08-14T04:52:07.649Z,17.83
2023-08-14T04:57:09.301Z,18.00
2023-08-14T05:02:11.037Z,18.06
2023-08-14T05:07:13.386Z,18.16
2023-08-14T05:12:15.099Z,18.44
2023-08-14T05:17:17.164Z,18.64
2023-08-14T05:22:20.923Z,18.82
2023-08-14T05:27:22.809Z,18.95
2023-08-14T05:32:24.367Z,19.06
2023-08-14T05:37:25.945Z,19.19
2023-08-14T05:42:27.555Z,19.34
2023-08-14T05:47:29.247Z,19.36
2023-08-14T05:52:30.831Z,19.41
2023-08-14T05:57:32.378Z,19.68
2023-08-14T06:02:34.006Z,20.19
2023-08-14T06:07:38.158Z,20.70
2023-08-14T06:12:39.889Z,21.39
2023-08-14T06:17:42.928Z,21.90
2023-08-14T06:22:47.315Z,22.17
2023-08-14T06:27:53.987Z,22.34
2023-08-14T06:32:55.607Z,22.30
2023-08-14T06:37:57.196Z,22.16
2023-08-14T06:42:58.832Z,22.12
2023-08-14T06:48:00.465Z,22.12
2023-08-14T06:53:02.053Z,22.26
2023-08-14T06:58:03.850Z,22.40
2023-08-14T07:03:05.580Z,22.75
2023-08-14T07:08:07.305Z,22.97
2023-08-14T07:13:09.226Z,23.25
2023-08-14T07:18:10.801Z,23.46
2023-08-14T07:23:16.431Z,23.70
2023-08-14T07:28:18.390Z,24.03
2023-08-14T07:33:19.970Z,24.46
2023-08-14T07:38:21.544Z,24.67
2023-08-14T07:43:24.114Z,25.02
2023-08-14T07:48:25.695Z,25.38
2023-08-14T07:53:27.277Z,25.47
2023-08-14T07:58:29.052Z,25.35
2023-08-14T08:03:30.690Z,25.53
2023-08-14T08:08:32.257Z,25.83
2023-08-14T08:13:33.837Z,25.90
2023-08-14T08:18:35.993Z,26.01
2023-08-14T08:23:37.704Z,26.32
2023-08-14T08:28:39.501Z,26.30
2023-08-14T08:33:41.211Z,25.98
2023-08-14T08:38:43.075Z,26.00
2023-08-14T08:43:45.023Z,26.23
2023-08-14T08:48:51.836Z,26.61
2023-08-14T08:53:53.436Z,26.91
2023-08-14T08:58:55.579Z,27.17
2023-08-14T09:03:57.414Z,27.47
2023-08-14T09:08:59.417Z,27.75
2023-08-14T09:14:06.418Z,28.16
2023-08-14T09:19:08.098Z,28.26
2023-08-14T09:24:12.835Z,28.38
2023-08-14T09:34:21.911Z,28.70
2023-08-14T09:39:24.913Z,29.12
2023-08-14T09:44:26.884Z,29.11
2023-08-14T09:49:28.707Z,29.46
2023-08-14T09:54:35.344Z,30.11
2023-08-14T09:59:37.965Z,30.33
2023-08-14T10:04:40.577Z,30.37
2023-08-14T10:09:46.289Z,30.73
2023-08-14T10:15:05.323Z,30.66
2023-08-14T10:20:08.497Z,30.66
2023-08-14T10:25:11.384Z,30.77
2023-08-14T10:30:13.717Z,30.91
2023-08-14T10:35:15.377Z,30.96
2023-08-14T10:40:26.193Z,30.99
2023-08-14T10:45:29.336Z,30.98
2023-08-14T10:50:31.768Z,30.69
2023-08-14T10:55:42.214Z,30.43
2023-08-14T11:00:46.639Z,30.31
2023-08-14T11:05:48.728Z,30.23
2023-08-14T11:10:51.061Z,30.06
2023-08-14T11:15:52.806Z,29.98
2023-08-14T11:20:54.597Z,29.80
2023-08-14T11:25:57.039Z,29.85
2023-08-14T11:30:59.031Z,29.99
2023-08-14T11:41:05.456Z,30.66
2023-08-14T11:46:07.202Z,31.16
2023-08-14T11:51:08.903Z,31.08
2023-08-14T11:56:10.758Z,30.75
2023-08-14T12:01:12.416Z,30.50
2023-08-14T12:06:14.296Z,30.52
2023-08-14T12:11:18.948Z,30.58
2023-08-14T12:16:26.221Z,30.51
2023-08-14T12:21:30.124Z,30.84
2023-08-14T12:26:42.010Z,31.46
2023-08-14T12:31:43.917Z,31.86
2023-08-14T12:36:45.738Z,31.95
2023-08-14T12:41:47.698Z,31.80
2023-08-14T12:46:49.293Z,31.39
2023-08-14T12:51:54.089Z,31.14
2023-08-14T12:57:01.523Z,31.24
2023-08-14T13:02:03.712Z,31.14
2023-08-14T13:07:05.383Z,30.54
2023-08-14T13:12:07.222Z,30.20
2023-08-14T13:17:08.793Z,30.03
2023-08-14T13:22:10.418Z,30.10
2023-08-14T13:27:12.055Z,29.84
2023-08-14T13:32:13.713Z,29.61
2023-08-14T13:37:15.303Z,29.04
2023-08-14T13:42:17.420Z,28.64
2023-08-14T13:47:19.552Z,28.31
2023-08-14T13:52:21.143Z,28.08
2023-08-14T13:57:23.850Z,28.23
2023-08-14T14:02:25.436Z,28.43
2023-08-14T14:07:30.523Z,28.51
2023-08-14T14:12:35.805Z,28.29
2023-08-14T14:17:38.471Z,28.05
2023-08-14T14:22:40.044Z,27.88
2023-08-14T14:27:42.056Z,27.73
2023-08-14T14:32:43.713Z,27.63
2023-08-14T14:37:52.609Z,27.54
2023-08-14T14:42:54.845Z,27.57
2023-08-14T14:47:56.456Z,27.69
2023-08-14T14:52:58.765Z,27.89
2023-08-14T14:58:00.361Z,28.11
2023-08-14T15:03:02.005Z,28.31
2023-08-14T15:08:03.784Z,28.62
2023-08-14T15:13:05.367Z,29.14
2023-08-14T15:18:07.701Z,29.16
2023-08-14T15:23:09.311Z,28.78
2023-08-14T15:28:10.893Z,28.60
2023-08-14T15:33:12.605Z,28.64
2023-08-14T15:38:14.319Z,28.54
2023-08-14T15:43:16.653Z,28.56
2023-08-14T15:48:18.271Z,28.48
2023-08-14T15:53:19.879Z,28.44
2023-08-14T15:58:21.511Z,28.37
2023-08-14T16:03:23.074Z,28.32
2023-08-14T16:08:24.665Z,28.29
2023-08-14T16:13:26.422Z,28.29
2023-08-14T16:18:28.049Z,28.29
2023-08-14T16:23:29.638Z,28.29
2023-08-14T16:28:31.281Z,28.29
2023-08-14T16:33:32.871Z,28.31
2023-08-14T16:38:34.571Z,28.36
2023-08-14T16:43:36.141Z,28.44
2023-08-14T16:48:37.778Z,28.52
2023-08-14T16:53:39.340Z,28.55
2023-08-14T16:58:40.970Z,28.55
2023-08-14T17:03:42.599Z,28.51
2023-08-14T17:08:44.270Z,28.55
2023-08-14T17:13:45.982Z,28.67
2023-08-14T17:18:48.749Z,28.81
2023-08-14T17:23:50.333Z,28.87
2023-08-14T17:28:51.928Z,28.91
2023-08-14T17:33:53.599Z,28.92
2023-08-14T17:38:55.314Z,28.85
2023-08-14T17:43:57.063Z,28.78
2023-08-14T17:48:58.764Z,28.62
2023-08-14T17:54:00.399Z,28.37
2023-08-14T17:59:02.893Z,28.07
2023-08-14T18:04:05.170Z,27.74
2023-08-14T18:09:07.027Z,27.44
2023-08-14T18:14:08.594Z,27.06
2023-08-14T18:19:28.519Z,26.69
2023-08-14T18:24:31.078Z,26.34
2023-08-14T18:29:32.655Z,25.95
2023-08-14T18:34:34.238Z,25.56
2023-08-14T18:39:36.378Z,25.19
2023-08-14T18:44:37.958Z,24.79
2023-08-14T18:49:44.252Z,24.43
2023-08-14T18:54:47.432Z,24.07
2023-08-14T18:59:49.062Z,23.76
2023-08-14T19:04:50.714Z,23.48
2023-08-14T19:09:52.561Z,23.23
2023-08-14T19:14:54.321Z,22.91
2023-08-14T19:19:56.050Z,22.64
2023-08-14T19:24:57.634Z,22.46
2023-08-14T19:29:59.420Z,22.26
2023-08-14T19:35:02.735Z,22.04
2023-08-14T19:40:05.367Z,21.90
2023-08-14T19:45:08.831Z,21.70
2023-08-14T19:50:10.982Z,21.52
2023-08-14T19:55:12.626Z,21.32
2023-08-14T20:00:14.411Z,21.16
2023-08-14T20:05:16.021Z,21.04
2023-08-14T20:10:17.757Z,20.88
2023-08-14T20:15:19.357Z,20.76
2023-08-14T20:20:21.053Z,20.64
2023-08-14T20:25:22.638Z,20.57
2023-08-14T20:30:24.240Z,20.59
2023-08-14T20:35:25.818Z,20.54
2023-08-14T20:40:29.796Z,20.58
2023-08-14T20:45:35.411Z,20.50
2023-08-14T20:50:37.435Z,20.35
2023-08-14T20:55:42.339Z,20.24
2023-08-14T21:00:47.100Z,20.16
2023-08-14T21:05:51.278Z,20.08
2023-08-14T21:10:52.946Z,19.95
2023-08-14T21:16:01.118Z,19.80
2023-08-14T21:21:02.752Z,19.72
2023-08-14T21:26:04.378Z,19.61
2023-08-14T21:31:06.040Z,19.51
2023-08-14T21:36:07.693Z,19.43
2023-08-14T21:41:12.247Z,19.40
2023-08-14T21:46:13.908Z,19.40
2023-08-14T21:51:15.473Z,19.34
2023-08-14T21:56:17.137Z,19.25
2023-08-14T22:01:18.771Z,19.16
2023-08-14T22:06:20.520Z,19.09
2023-08-14T22:11:22.124Z,19.01
2023-08-14T22:16:23.936Z,19.00
2023-08-14T22:21:26.021Z,18.88
2023-08-14T22:26:27.613Z,18.81
2023-08-14T22:31:29.333Z,18.86
2023-08-14T22:36:31.491Z,18.94
2023-08-14T22:41:33.152Z,18.92
2023-08-14T22:46:34.741Z,18.88
2023-08-14T22:51:36.354Z,18.91
2023-08-14T22:56:37.966Z,18.88
2023-08-14T23:01:40.075Z,18.82
2023-08-14T23:06:41.707Z,18.79
2023-08-14T23:11:43.272Z,18.74
2023-08-14T23:16:47.302Z,18.73
2023-08-14T23:21:48.892Z,18.65
2023-08-14T23:26:50.491Z,18.60
2023-08-14T23:31:52.068Z,18.58
2023-08-14T23:36:53.984Z,18.53
2023-08-14T23:41:55.584Z,18.55
2023-08-14T23:46:57.490Z,18.63
2023-08-14T23:51:59.114Z,18.62
2023-08-14T23:57:00.697Z,18.55
